sensor_id;sensor_type;location;lat;lon;timestamp;pressure;altitude;pressure_sealevel;temperature;humidity
82413;BME280;72056;51.980;15.436;2024-01-15T00:01:08;98629.38;;;2.08;100.00
82413;BME280;72056;51.980;15.436;2024-01-15T00:03:55;98627.81;;;2.05;100.00
82413;BME280;72056;51.980;15.436;2024-01-15T00:06:21;98625.41;;;2.12;100.00
82413;BME280;72056;51.980;15.436;2024-01-15T00:08:48;98637.22;;;1.71;100.00
82413;BME280;72056;51.980;15.436;2024-01-15T00:11:14;98629.63;;;2.15;100.00
82413;BME280;72056;51.980;15.436;2024-01-15T00:13:41;98632.44;;;1.94;100.00
82413;BME280;72056;51.980;15.436;2024-01-15T00:16:08;98610.41;;;2.10;100.00
82413;BME280;72056;51.980;15.436;2024-01-15T00:18:34;98605.31;;;1.97;100.00
82413;BME280;72056;51.980;15.436;2024-01-15T00:21:00;98612.94;;;1.73;100.00
82413;BME280;72056;51.980;15.436;2024-01-15T00:23:27;98606.59;;;1.83;100.00
82413;BME280;72056;51.980;15.436;2024-01-15T00:25:54;98581.69;;;1.62;100.00
82413;BME280;72056;51.980;15.436;2024-01-15T00:28:20;98584.56;;;1.99;100.00
82413;BME280;72056;51.980;15.436;2024-01-15T00:30:47;98584.88;;;2.05;100.00
82413;BME280;72056;51.980;15.436;2024-01-15T00:33:13;98557.34;;;1.84;100.00
82413;BME280;72056;51.980;15.436;2024-01-15T00:35:40;98581.03;;;1.98;100.00
82413;BME280;72056;51.980;15.436;2024-01-15T00:38:07;98584.97;;;1.85;100.00
82413;BME280;72056;51.980;15.436;2024-01-15T00:40:34;98585.72;;;1.96;100.00
82413;BME280;72056;51.980;15.436;2024-01-15T00:43:00;98590.66;;;2.11;100.00
82413;BME280;72056;51.980;15.436;2024-01-15T00:45:28;98582.31;;;1.94;100.00
82413;BME280;72056;51.980;15.436;2024-01-15T00:47:54;98576.53;;;1.89;100.00
82413;BME280;72056;51.980;15.436;2024-01-15T00:50:22;98567.44;;;1.52;100.00
82413;BME280;72056;51.980;15.436;2024-01-15T00:52:48;98562.13;;;1.81;100.00
82413;BME280;72056;51.980;15.436;2024-01-15T00:55:15;98565.59;;;1.62;100.00
82413;BME280;72056;51.980;15.436;2024-01-15T00:57:41;98559.88;;;1.95;100.00
82413;BME280;72056;51.980;15.436;2024-01-15T01:00:09;98555.31;;;1.67;100.00
82413;BME280;72056;51.980;15.436;2024-01-15T01:02:35;98558.19;;;1.94;100.00
82413;BME280;72056;51.980;15.436;2024-01-15T01:05:02;98550.94;;;1.85;100.00
82413;BME280;72056;51.980;15.436;2024-01-15T01:07:29;98556.44;;;1.74;100.00
82413;BME280;72056;51.980;15.436;2024-01-15T01:09:56;98546.56;;;1.65;100.00
82413;BME280;72056;51.980;15.436;2024-01-15T01:12:22;98544.03;;;1.92;100.00
82413;BME280;72056;51.980;15.436;2024-01-15T01:14:48;98533.84;;;1.67;100.00
82413;BME280;72056;51.980;15.436;2024-01-15T01:17:15;98525.13;;;1.75;100.00
82413;BME280;72056;51.980;15.436;2024-01-15T01:19:42;98527.22;;;1.52;100.00
82413;BME280;72056;51.980;15.436;2024-01-15T01:22:08;98519.47;;;1.58;100.00
82413;BME280;72056;51.980;15.436;2024-01-15T01:24:35;98507.34;;;1.54;100.00
82413;BME280;72056;51.980;15.436;2024-01-15T01:27:01;98502.69;;;1.66;100.00
82413;BME280;72056;51.980;15.436;2024-01-15T01:29:28;98504.25;;;1.78;100.00
82413;BME280;72056;51.980;15.436;2024-01-15T01:31:55;98516.81;;;1.78;100.00
82413;BME280;72056;51.980;15.436;2024-01-15T01:34:22;98513.69;;;1.63;100.00
82413;BME280;72056;51.980;15.436;2024-01-15T01:36:48;98503.25;;;1.89;100.00
82413;BME280;72056;51.980;15.436;2024-01-15T01:39:15;98501.41;;;1.70;100.00
82413;BME280;72056;51.980;15.436;2024-01-15T01:41:41;98506.09;;;1.78;100.00
82413;BME280;72056;51.980;15.436;2024-01-15T01:44:08;98509.31;;;1.62;100.00
82413;BME280;72056;51.980;15.436;2024-01-15T01:46:36;98479.66;;;1.73;100.00
82413;BME280;72056;51.980;15.436;2024-01-15T01:49:08;98497.47;;;1.84;100.00
82413;BME280;72056;51.980;15.436;2024-01-15T01:51:35;98487.28;;;1.87;100.00
82413;BME280;72056;51.980;15.436;2024-01-15T01:54:04;98492.09;;;1.84;100.00
82413;BME280;72056;51.980;15.436;2024-01-15T01:56:31;98465.84;;;1.87;100.00
82413;BME280;72056;51.980;15.436;2024-01-15T01:58:58;98466.94;;;1.85;100.00
82413;BME280;72056;51.980;15.436;2024-01-15T02:01:24;98488.69;;;1.91;100.00
82413;BME280;72056;51.980;15.436;2024-01-15T02:03:51;98479.25;;;1.87;100.00
82413;BME280;72056;51.980;15.436;2024-01-15T02:06:18;98474.44;;;1.81;100.00
82413;BME280;72056;51.980;15.436;2024-01-15T02:08:45;98466.94;;;1.85;100.00
82413;BME280;72056;51.980;15.436;2024-01-15T02:11:11;98453.72;;;1.83;100.00
82413;BME280;72056;51.980;15.436;2024-01-15T02:13:38;98476.44;;;1.60;100.00
82413;BME280;72056;51.980;15.436;2024-01-15T02:16:05;98443.53;;;1.77;100.00
82413;BME280;72056;51.980;15.436;2024-01-15T02:18:46;98466.38;;;1.91;100.00
82413;BME280;72056;51.980;15.436;2024-01-15T02:21:11;98448.34;;;1.83;100.00
82413;BME280;72056;51.980;15.436;2024-01-15T02:23:39;98442.69;;;1.67;100.00
82413;BME280;72056;51.980;15.436;2024-01-15T02:26:05;98452.56;;;1.76;100.00
82413;BME280;72056;51.980;15.436;2024-01-15T02:28:33;98438.06;;;1.59;100.00
82413;BME280;72056;51.980;15.436;2024-01-15T02:30:59;98445.78;;;1.62;100.00
82413;BME280;72056;51.980;15.436;2024-01-15T02:33:26;98444.38;;;1.87;100.00
82413;BME280;72056;51.980;15.436;2024-01-15T02:35:51;98434.78;;;1.75;100.00
82413;BME280;72056;51.980;15.436;2024-01-15T02:38:18;98438.16;;;1.68;100.00
82413;BME280;72056;51.980;15.436;2024-01-15T02:40:45;98416.16;;;1.64;100.00
82413;BME280;72056;51.980;15.436;2024-01-15T02:43:11;98430.81;;;1.79;100.00
82413;BME280;72056;51.980;15.436;2024-01-15T02:45:37;98431.97;;;1.67;100.00
82413;BME280;72056;51.980;15.436;2024-01-15T02:48:04;98418.03;;;1.54;100.00
82413;BME280;72056;51.980;15.436;2024-01-15T02:50:31;98428.41;;;1.86;100.00
82413;BME280;72056;51.980;15.436;2024-01-15T02:52:57;98414.03;;;1.96;100.00
82413;BME280;72056;51.980;15.436;2024-01-15T02:55:24;98405.69;;;1.80;100.00
82413;BME280;72056;51.980;15.436;2024-01-15T02:57:50;98414.72;;;1.79;100.00
82413;BME280;72056;51.980;15.436;2024-01-15T03:00:16;98409.06;;;1.92;100.00
82413;BME280;72056;51.980;15.436;2024-01-15T03:02:44;98393.97;;;1.81;100.00
82413;BME280;72056;51.980;15.436;2024-01-15T03:05:10;98397.25;;;1.75;100.00
82413;BME280;72056;51.980;15.436;2024-01-15T03:07:36;98413.63;;;1.53;100.00
82413;BME280;72056;51.980;15.436;2024-01-15T03:10:03;98390.22;;;1.45;100.00
82413;BME280;72056;51.980;15.436;2024-01-15T03:12:29;98401.38;;;1.60;100.00
82413;BME280;72056;51.980;15.436;2024-01-15T03:14:56;98386.53;;;1.56;100.00
82413;BME280;72056;51.980;15.436;2024-01-15T03:17:22;98404.88;;;1.51;100.00
82413;BME280;72056;51.980;15.436;2024-01-15T03:19:48;98409.41;;;1.41;100.00
82413;BME280;72056;51.980;15.436;2024-01-15T03:22:19;98412.38;;;1.47;100.00
82413;BME280;72056;51.980;15.436;2024-01-15T03:24:45;98399.09;;;1.55;100.00
82413;BME280;72056;51.980;15.436;2024-01-15T03:27:11;98419.28;;;1.31;100.00
82413;BME280;72056;51.980;15.436;2024-01-15T03:29:39;98405.19;;;1.48;100.00
82413;BME280;72056;51.980;15.436;2024-01-15T03:32:06;98411.22;;;1.11;100.00
82413;BME280;72056;51.980;15.436;2024-01-15T03:34:33;98389.06;;;1.09;100.00
82413;BME280;72056;51.980;15.436;2024-01-15T03:36:59;98399.66;;;1.40;100.00
82413;BME280;72056;51.980;15.436;2024-01-15T03:39:26;98411.22;;;1.50;100.00
82413;BME280;72056;51.980;15.436;2024-01-15T03:41:52;98396.84;;;1.22;100.00
82413;BME280;72056;51.980;15.436;2024-01-15T03:44:19;98410.53;;;1.48;100.00
82413;BME280;72056;51.980;15.436;2024-01-15T03:46:47;98394.59;;;1.37;100.00
82413;BME280;72056;51.980;15.436;2024-01-15T03:49:13;98419.72;;;1.55;100.00
82413;BME280;72056;51.980;15.436;2024-01-15T03:51:40;98406.44;;;1.53;100.00
82413;BME280;72056;51.980;15.436;2024-01-15T03:54:06;98419.41;;;1.39;100.00
82413;BME280;72056;51.980;15.436;2024-01-15T03:56:33;98410.13;;;1.43;100.00
82413;BME280;72056;51.980;15.436;2024-01-15T03:58:59;98426.88;;;1.45;100.00
82413;BME280;72056;51.980;15.436;2024-01-15T04:01:26;98421.25;;;1.38;100.00
82413;BME280;72056;51.980;15.436;2024-01-15T04:03:53;98408.84;;;1.47;100.00
82413;BME280;72056;51.980;15.436;2024-01-15T04:06:20;98396.72;;;1.43;100.00
82413;BME280;72056;51.980;15.436;2024-01-15T04:08:46;98417.59;;;1.39;100.00
82413;BME280;72056;51.980;15.436;2024-01-15T04:11:13;98419.56;;;1.28;100.00
82413;BME280;72056;51.980;15.436;2024-01-15T04:13:39;98401.94;;;1.54;100.00
82413;BME280;72056;51.980;15.436;2024-01-15T04:16:06;98411.50;;;1.28;100.00
82413;BME280;72056;51.980;15.436;2024-01-15T04:18:32;98396.00;;;1.41;100.00
82413;BME280;72056;51.980;15.436;2024-01-15T04:20:58;98414.34;;;1.36;100.00
82413;BME280;72056;51.980;15.436;2024-01-15T04:23:26;98396.38;;;1.07;100.00
82413;BME280;72056;51.980;15.436;2024-01-15T04:25:57;98393.47;;;1.39;100.00
82413;BME280;72056;51.980;15.436;2024-01-15T04:28:23;98392.34;;;1.22;100.00
82413;BME280;72056;51.980;15.436;2024-01-15T04:30:51;98382.31;;;1.44;100.00
82413;BME280;72056;51.980;15.436;2024-01-15T04:33:17;98375.41;;;1.60;100.00
82413;BME280;72056;51.980;15.436;2024-01-15T04:35:44;98381.19;;;1.66;100.00
82413;BME280;72056;51.980;15.436;2024-01-15T04:38:11;98378.78;;;1.34;100.00
82413;BME280;72056;51.980;15.436;2024-01-15T04:40:38;98373.53;;;1.61;100.00
82413;BME280;72056;51.980;15.436;2024-01-15T04:43:04;98393.47;;;1.58;100.00
82413;BME280;72056;51.980;15.436;2024-01-15T04:45:30;98374.97;;;1.55;100.00
82413;BME280;72056;51.980;15.436;2024-01-15T04:47:57;98350.41;;;1.50;100.00
82413;BME280;72056;51.980;15.436;2024-01-15T04:50:23;98377.22;;;1.60;100.00
82413;BME280;72056;51.980;15.436;2024-01-15T04:52:50;98355.66;;;1.52;100.00
82413;BME280;72056;51.980;15.436;2024-01-15T04:55:17;98371.59;;;1.34;100.00
82413;BME280;72056;51.980;15.436;2024-01-15T04:57:43;98344.78;;;1.44;100.00
82413;BME280;72056;51.980;15.436;2024-01-15T05:00:12;98338.59;;;1.14;100.00
82413;BME280;72056;51.980;15.436;2024-01-15T05:02:39;98357.91;;;1.47;100.00
82413;BME280;72056;51.980;15.436;2024-01-15T05:05:06;98371.72;;;1.13;100.00
82413;BME280;72056;51.980;15.436;2024-01-15T05:07:32;98342.84;;;1.36;100.00
82413;BME280;72056;51.980;15.436;2024-01-15T05:09:59;98344.09;;;1.42;100.00
82413;BME280;72056;51.980;15.436;2024-01-15T05:12:25;98348.31;;;1.15;100.00
82413;BME280;72056;51.980;15.436;2024-01-15T05:14:52;98336.88;;;1.33;100.00
82413;BME280;72056;51.980;15.436;2024-01-15T05:17:19;98355.22;;;1.66;100.00
82413;BME280;72056;51.980;15.436;2024-01-15T05:19:45;98355.38;;;1.55;100.00
82413;BME280;72056;51.980;15.436;2024-01-15T05:22:11;98360.72;;;1.45;100.00
82413;BME280;72056;51.980;15.436;2024-01-15T05:24:38;98359.00;;;1.63;100.00
82413;BME280;72056;51.980;15.436;2024-01-15T05:27:05;98351.31;;;1.12;100.00
82413;BME280;72056;51.980;15.436;2024-01-15T05:29:32;98347.78;;;1.12;100.00
82413;BME280;72056;51.980;15.436;2024-01-15T05:31:58;98349.72;;;1.39;100.00
82413;BME280;72056;51.980;15.436;2024-01-15T05:34:25;98351.84;;;1.16;100.00
82413;BME280;72056;51.980;15.436;2024-01-15T05:36:51;98341.13;;;1.26;100.00
82413;BME280;72056;51.980;15.436;2024-01-15T05:39:17;98345.78;;;1.04;100.00
82413;BME280;72056;51.980;15.436;2024-01-15T05:41:44;98365.13;;;1.37;100.00
82413;BME280;72056;51.980;15.436;2024-01-15T05:44:11;98353.53;;;1.07;100.00
82413;BME280;72056;51.980;15.436;2024-01-15T05:46:37;98337.75;;;1.43;100.00
82413;BME280;72056;51.980;15.436;2024-01-15T05:49:03;98353.66;;;1.44;100.00
82413;BME280;72056;51.980;15.436;2024-01-15T05:51:30;98361.44;;;1.47;100.00
82413;BME280;72056;51.980;15.436;2024-01-15T05:53:56;98342.66;;;1.57;100.00
82413;BME280;72056;51.980;15.436;2024-01-15T05:56:23;98337.03;;;1.41;100.00
82413;BME280;72056;51.980;15.436;2024-01-15T05:58:50;98348.88;;;1.38;100.00
82413;BME280;72056;51.980;15.436;2024-01-15T06:01:16;98350.28;;;1.33;100.00
82413;BME280;72056;51.980;15.436;2024-01-15T06:03:43;98354.22;;;1.57;100.00
82413;BME280;72056;51.980;15.436;2024-01-15T06:06:09;98354.69;;;1.24;100.00
82413;BME280;72056;51.980;15.436;2024-01-15T06:08:37;98340.28;;;1.35;100.00
82413;BME280;72056;51.980;15.436;2024-01-15T06:11:04;98352.28;;;1.31;100.00
82413;BME280;72056;51.980;15.436;2024-01-15T06:13:31;98372.72;;;1.60;100.00
82413;BME280;72056;51.980;15.436;2024-01-15T06:15:58;98359.16;;;1.72;100.00
82413;BME280;72056;51.980;15.436;2024-01-15T06:18:25;98347.47;;;1.44;100.00
82413;BME280;72056;51.980;15.436;2024-01-15T06:20:51;98376.25;;;1.51;100.00
82413;BME280;72056;51.980;15.436;2024-01-15T06:23:17;98343.78;;;1.45;100.00
82413;BME280;72056;51.980;15.436;2024-01-15T06:25:44;98361.72;;;1.54;100.00
82413;BME280;72056;51.980;15.436;2024-01-15T06:28:11;98355.78;;;1.50;100.00
82413;BME280;72056;51.980;15.436;2024-01-15T06:30:38;98343.13;;;1.43;100.00
82413;BME280;72056;51.980;15.436;2024-01-15T06:33:05;98371.03;;;1.11;100.00
82413;BME280;72056;51.980;15.436;2024-01-15T06:35:32;98366.66;;;1.39;100.00
82413;BME280;72056;51.980;15.436;2024-01-15T06:38:00;98364.97;;;1.09;100.00
82413;BME280;72056;51.980;15.436;2024-01-15T06:40:26;98347.75;;;1.41;100.00
82413;BME280;72056;51.980;15.436;2024-01-15T06:42:53;98349.63;;;1.31;100.00
82413;BME280;72056;51.980;15.436;2024-01-15T06:45:19;98348.75;;;1.40;100.00
82413;BME280;72056;51.980;15.436;2024-01-15T06:47:46;98364.00;;;1.30;100.00
82413;BME280;72056;51.980;15.436;2024-01-15T06:50:13;98336.47;;;1.37;100.00
82413;BME280;72056;51.980;15.436;2024-01-15T06:52:39;98336.06;;;1.22;100.00
82413;BME280;72056;51.980;15.436;2024-01-15T06:55:07;98355.47;;;1.63;100.00
82413;BME280;72056;51.980;15.436;2024-01-15T06:57:34;98348.28;;;1.63;100.00
82413;BME280;72056;51.980;15.436;2024-01-15T07:00:00;98349.28;;;1.72;100.00
82413;BME280;72056;51.980;15.436;2024-01-15T07:02:26;98349.28;;;1.62;100.00
82413;BME280;72056;51.980;15.436;2024-01-15T07:04:53;98371.31;;;1.47;100.00
82413;BME280;72056;51.980;15.436;2024-01-15T07:07:19;98351.25;;;1.51;100.00
82413;BME280;72056;51.980;15.436;2024-01-15T07:09:46;98361.75;;;1.25;100.00
82413;BME280;72056;51.980;15.436;2024-01-15T07:12:12;98344.38;;;1.39;100.00
82413;BME280;72056;51.980;15.436;2024-01-15T07:14:39;98351.28;;;1.60;100.00
82413;BME280;72056;51.980;15.436;2024-01-15T07:17:07;98351.94;;;1.62;100.00
82413;BME280;72056;51.980;15.436;2024-01-15T07:19:34;98361.31;;;1.30;100.00
82413;BME280;72056;51.980;15.436;2024-01-15T07:22:00;98356.06;;;1.38;100.00
82413;BME280;72056;51.980;15.436;2024-01-15T07:24:26;98364.56;;;1.43;100.00
82413;BME280;72056;51.980;15.436;2024-01-15T07:26:53;98371.28;;;1.56;100.00
82413;BME280;72056;51.980;15.436;2024-01-15T07:29:20;98344.78;;;1.34;100.00
82413;BME280;72056;51.980;15.436;2024-01-15T07:31:50;98376.41;;;1.40;100.00
82413;BME280;72056;51.980;15.436;2024-01-15T07:34:17;98363.53;;;1.44;100.00
82413;BME280;72056;51.980;15.436;2024-01-15T07:36:46;98345.09;;;1.41;100.00
82413;BME280;72056;51.980;15.436;2024-01-15T07:39:12;98351.56;;;1.48;100.00
82413;BME280;72056;51.980;15.436;2024-01-15T07:41:38;98360.75;;;1.36;100.00
82413;BME280;72056;51.980;15.436;2024-01-15T07:44:05;98353.13;;;1.12;100.00
82413;BME280;72056;51.980;15.436;2024-01-15T07:46:31;98379.78;;;1.42;100.00
82413;BME280;72056;51.980;15.436;2024-01-15T07:48:57;98360.44;;;1.58;100.00
82413;BME280;72056;51.980;15.436;2024-01-15T07:51:24;98368.34;;;1.40;100.00
82413;BME280;72056;51.980;15.436;2024-01-15T07:53:53;98356.22;;;1.27;100.00
82413;BME280;72056;51.980;15.436;2024-01-15T07:56:19;98371.00;;;1.50;100.00
82413;BME280;72056;51.980;15.436;2024-01-15T07:58:46;98355.22;;;1.47;100.00
82413;BME280;72056;51.980;15.436;2024-01-15T08:01:13;98369.34;;;1.49;100.00
82413;BME280;72056;51.980;15.436;2024-01-15T08:03:39;98362.81;;;1.61;100.00
82413;BME280;72056;51.980;15.436;2024-01-15T08:06:05;98362.25;;;1.57;100.00
82413;BME280;72056;51.980;15.436;2024-01-15T08:08:32;98365.94;;;1.56;100.00
82413;BME280;72056;51.980;15.436;2024-01-15T08:10:58;98374.25;;;1.63;100.00
82413;BME280;72056;51.980;15.436;2024-01-15T08:13:26;98373.84;;;1.58;100.00
82413;BME280;72056;51.980;15.436;2024-01-15T08:15:54;98366.75;;;1.76;100.00
82413;BME280;72056;51.980;15.436;2024-01-15T08:18:21;98355.66;;;1.42;100.00
82413;BME280;72056;51.980;15.436;2024-01-15T08:20:47;98388.38;;;1.46;100.00
82413;BME280;72056;51.980;15.436;2024-01-15T08:23:13;98340.00;;;1.47;100.00
82413;BME280;72056;51.980;15.436;2024-01-15T08:25:40;98331.25;;;1.55;100.00
82413;BME280;72056;51.980;15.436;2024-01-15T08:28:06;98322.78;;;1.21;100.00
82413;BME280;72056;51.980;15.436;2024-01-15T08:30:34;98335.63;;;1.46;100.00
82413;BME280;72056;51.980;15.436;2024-01-15T08:33:00;98370.72;;;1.62;100.00
82413;BME280;72056;51.980;15.436;2024-01-15T08:35:27;98364.00;;;1.49;100.00
82413;BME280;72056;51.980;15.436;2024-01-15T08:37:53;98376.47;;;1.87;100.00
82413;BME280;72056;51.980;15.436;2024-01-15T08:40:20;98369.00;;;1.90;100.00
82413;BME280;72056;51.980;15.436;2024-01-15T08:42:47;98383.94;;;1.93;100.00
82413;BME280;72056;51.980;15.436;2024-01-15T08:45:14;98361.25;;;1.68;100.00
82413;BME280;72056;51.980;15.436;2024-01-15T08:47:40;98371.41;;;1.74;100.00
82413;BME280;72056;51.980;15.436;2024-01-15T08:50:07;98367.84;;;1.93;100.00
82413;BME280;72056;51.980;15.436;2024-01-15T08:52:36;98378.28;;;1.96;100.00
82413;BME280;72056;51.980;15.436;2024-01-15T08:55:03;98356.38;;;2.00;100.00
82413;BME280;72056;51.980;15.436;2024-01-15T08:57:30;98371.84;;;2.26;100.00
82413;BME280;72056;51.980;15.436;2024-01-15T08:59:57;98377.63;;;2.31;100.00
82413;BME280;72056;51.980;15.436;2024-01-15T09:02:24;98388.03;;;2.34;100.00
82413;BME280;72056;51.980;15.436;2024-01-15T09:04:50;98354.00;;;2.34;100.00
82413;BME280;72056;51.980;15.436;2024-01-15T09:07:17;98353.13;;;2.34;100.00
82413;BME280;72056;51.980;15.436;2024-01-15T09:09:44;98379.19;;;2.51;100.00
82413;BME280;72056;51.980;15.436;2024-01-15T09:12:11;98391.63;;;2.52;100.00
82413;BME280;72056;51.980;15.436;2024-01-15T09:14:41;98350.47;;;2.61;100.00
82413;BME280;72056;51.980;15.436;2024-01-15T09:17:08;98383.25;;;2.65;100.00
82413;BME280;72056;51.980;15.436;2024-01-15T09:19:34;98372.28;;;2.76;100.00
82413;BME280;72056;51.980;15.436;2024-01-15T09:22:00;98386.72;;;2.75;100.00
82413;BME280;72056;51.980;15.436;2024-01-15T09:24:27;98375.19;;;2.65;100.00
82413;BME280;72056;51.980;15.436;2024-01-15T09:26:54;98360.91;;;2.64;100.00
82413;BME280;72056;51.980;15.436;2024-01-15T09:29:21;98377.38;;;2.79;100.00
82413;BME280;72056;51.980;15.436;2024-01-15T09:31:50;98382.84;;;3.05;100.00
82413;BME280;72056;51.980;15.436;2024-01-15T09:34:17;98384.25;;;3.44;100.00
82413;BME280;72056;51.980;15.436;2024-01-15T09:36:44;98382.47;;;3.17;100.00
82413;BME280;72056;51.980;15.436;2024-01-15T09:39:10;98397.25;;;3.31;100.00
82413;BME280;72056;51.980;15.436;2024-01-15T09:41:38;98392.78;;;3.40;100.00
82413;BME280;72056;51.980;15.436;2024-01-15T09:44:04;98392.94;;;3.20;100.00
82413;BME280;72056;51.980;15.436;2024-01-15T09:46:50;98403.06;;;3.09;100.00
82413;BME280;72056;51.980;15.436;2024-01-15T09:49:18;98402.16;;;3.18;100.00
82413;BME280;72056;51.980;15.436;2024-01-15T09:51:44;98383.44;;;2.99;100.00
82413;BME280;72056;51.980;15.436;2024-01-15T09:54:11;98387.00;;;3.35;100.00
82413;BME280;72056;51.980;15.436;2024-01-15T09:56:39;98385.63;;;3.48;100.00
82413;BME280;72056;51.980;15.436;2024-01-15T09:59:05;98399.78;;;3.33;100.00
82413;BME280;72056;51.980;15.436;2024-01-15T10:01:32;98405.59;;;3.28;100.00
82413;BME280;72056;51.980;15.436;2024-01-15T10:04:02;98396.88;;;3.26;100.00
82413;BME280;72056;51.980;15.436;2024-01-15T10:06:29;98377.69;;;2.94;100.00
82413;BME280;72056;51.980;15.436;2024-01-15T10:08:56;98402.88;;;2.93;100.00
82413;BME280;72056;51.980;15.436;2024-01-15T10:11:26;98375.28;;;2.73;100.00
82413;BME280;72056;51.980;15.436;2024-01-15T10:13:52;98404.34;;;3.05;100.00
82413;BME280;72056;51.980;15.436;2024-01-15T10:16:19;98403.81;;;3.01;100.00
82413;BME280;72056;51.980;15.436;2024-01-15T10:18:46;98398.03;;;2.78;100.00
82413;BME280;72056;51.980;15.436;2024-01-15T10:21:13;98405.47;;;2.84;100.00
82413;BME280;72056;51.980;15.436;2024-01-15T10:23:41;98416.63;;;2.90;100.00
82413;BME280;72056;51.980;15.436;2024-01-15T10:26:06;98360.19;;;2.90;100.00
82413;BME280;72056;51.980;15.436;2024-01-15T10:28:33;98373.03;;;3.13;100.00
82413;BME280;72056;51.980;15.436;2024-01-15T10:31:00;98369.88;;;3.97;100.00
82413;BME280;72056;51.980;15.436;2024-01-15T10:33:27;98357.38;;;4.47;100.00
82413;BME280;72056;51.980;15.436;2024-01-15T10:35:57;98368.81;;;3.90;100.00
82413;BME280;72056;51.980;15.436;2024-01-15T10:38:24;98374.50;;;3.61;100.00
82413;BME280;72056;51.980;15.436;2024-01-15T10:40:54;98367.28;;;3.44;100.00
82413;BME280;72056;51.980;15.436;2024-01-15T10:43:21;98368.28;;;3.43;100.00
82413;BME280;72056;51.980;15.436;2024-01-15T10:45:49;98381.50;;;3.36;100.00
82413;BME280;72056;51.980;15.436;2024-01-15T10:48:18;98382.00;;;3.40;100.00
82413;BME280;72056;51.980;15.436;2024-01-15T10:50:46;98375.72;;;3.13;100.00
82413;BME280;72056;51.980;15.436;2024-01-15T10:53:16;98379.47;;;3.03;100.00
82413;BME280;72056;51.980;15.436;2024-01-15T10:55:43;98372.56;;;3.00;100.00
82413;BME280;72056;51.980;15.436;2024-01-15T10:58:10;98363.19;;;3.04;100.00
82413;BME280;72056;51.980;15.436;2024-01-15T11:00:36;98370.81;;;3.09;100.00
82413;BME280;72056;51.980;15.436;2024-01-15T11:03:06;98362.06;;;3.24;100.00
82413;BME280;72056;51.980;15.436;2024-01-15T11:05:42;98363.03;;;3.06;100.00
82413;BME280;72056;51.980;15.436;2024-01-15T11:08:10;98369.13;;;3.08;100.00
82413;BME280;72056;51.980;15.436;2024-01-15T11:10:46;98359.84;;;3.20;100.00
82413;BME280;72056;51.980;15.436;2024-01-15T11:16:06;98355.69;;;3.43;100.00
82413;BME280;72056;51.980;15.436;2024-01-15T11:21:25;98386.38;;;3.76;100.00
82413;BME280;72056;51.980;15.436;2024-01-15T11:23:59;98374.97;;;3.56;100.00
82413;BME280;72056;51.980;15.436;2024-01-15T11:29:30;98365.75;;;3.23;100.00
82413;BME280;72056;51.980;15.436;2024-01-15T11:31:59;98365.44;;;3.44;100.00
82413;BME280;72056;51.980;15.436;2024-01-15T11:34:52;98366.53;;;3.34;100.00
82413;BME280;72056;51.980;15.436;2024-01-15T11:37:19;98376.19;;;3.44;100.00
82413;BME280;72056;51.980;15.436;2024-01-15T11:39:46;98374.97;;;3.39;100.00
82413;BME280;72056;51.980;15.436;2024-01-15T11:42:14;98382.94;;;3.48;100.00
82413;BME280;72056;51.980;15.436;2024-01-15T11:44:41;98387.81;;;3.45;100.00
82413;BME280;72056;51.980;15.436;2024-01-15T11:47:09;98341.88;;;3.20;100.00
82413;BME280;72056;51.980;15.436;2024-01-15T11:52:23;98356.44;;;3.53;100.00
82413;BME280;72056;51.980;15.436;2024-01-15T11:57:57;98347.84;;;3.32;100.00
82413;BME280;72056;51.980;15.436;2024-01-15T12:00:28;98360.59;;;3.30;100.00
82413;BME280;72056;51.980;15.436;2024-01-15T12:02:54;98353.38;;;3.31;100.00
82413;BME280;72056;51.980;15.436;2024-01-15T12:05:22;98361.97;;;3.34;100.00
82413;BME280;72056;51.980;15.436;2024-01-15T12:07:49;98366.09;;;3.46;100.00
82413;BME280;72056;51.980;15.436;2024-01-15T12:10:18;98352.84;;;3.27;100.00
82413;BME280;72056;51.980;15.436;2024-01-15T12:13:00;98364.81;;;3.50;100.00
82413;BME280;72056;51.980;15.436;2024-01-15T12:15:30;98377.56;;;3.48;100.00
82413;BME280;72056;51.980;15.436;2024-01-15T12:17:58;98343.09;;;3.69;100.00
82413;BME280;72056;51.980;15.436;2024-01-15T12:20:31;98333.59;;;3.75;100.00
82413;BME280;72056;51.980;15.436;2024-01-15T12:22:58;98353.59;;;3.55;100.00
82413;BME280;72056;51.980;15.436;2024-01-15T12:25:25;98342.69;;;3.56;100.00
82413;BME280;72056;51.980;15.436;2024-01-15T12:27:53;98345.25;;;3.66;100.00
82413;BME280;72056;51.980;15.436;2024-01-15T12:30:19;98354.25;;;3.75;100.00
82413;BME280;72056;51.980;15.436;2024-01-15T12:32:45;98349.69;;;3.49;100.00
82413;BME280;72056;51.980;15.436;2024-01-15T12:35:15;98358.88;;;3.64;100.00
82413;BME280;72056;51.980;15.436;2024-01-15T12:37:47;98356.66;;;3.42;100.00
82413;BME280;72056;51.980;15.436;2024-01-15T12:40:19;98348.69;;;3.50;100.00
82413;BME280;72056;51.980;15.436;2024-01-15T12:42:46;98341.13;;;3.54;100.00
82413;BME280;72056;51.980;15.436;2024-01-15T12:45:13;98334.25;;;3.51;100.00
82413;BME280;72056;51.980;15.436;2024-01-15T12:47:40;98341.00;;;3.55;100.00
82413;BME280;72056;51.980;15.436;2024-01-15T12:50:10;98351.50;;;3.66;100.00
82413;BME280;72056;51.980;15.436;2024-01-15T12:52:53;98367.13;;;3.63;100.00
82413;BME280;72056;51.980;15.436;2024-01-15T12:55:20;98359.44;;;3.15;100.00
82413;BME280;72056;51.980;15.436;2024-01-15T12:57:46;98345.84;;;3.34;100.00
82413;BME280;72056;51.980;15.436;2024-01-15T13:00:15;98375.19;;;3.45;100.00
82413;BME280;72056;51.980;15.436;2024-01-15T13:02:42;98366.44;;;3.43;100.00
82413;BME280;72056;51.980;15.436;2024-01-15T13:05:09;98338.19;;;3.39;100.00